Laukaa, Finland
Kieli:  Suomi
CurCond
Päivitetty27/10/2020 23:15 
 

Lähistön Lentoasemien Säätiloja:

 

EFJY - Jyvaskyla (mil/C,) Finland
Etäisyys Sääasemalta: PKo 21km
Päivitetty: 27/10/2020 22:50
Enimmäkseen pilvistä
Enimmäkseen pilvistä
 Tuulen suunta E
Tuuli: E 7 km/h
Lämpötila: 8°C
Tuulen purevuus: 7°C
Kastepiste: 7°C
Ilmankosteus: 93%
Ilmanpaine: 1003 hPa
Pilvisyys: Enimmäkseen pilvistä
Näkyvyys: 10 km
Pilvisyystiedot: Enimmäkseen pilvistä 274 m
2020/10/27 20:50 EFJY 272050Z AUTO 19004KT 9999 BKN009 08/07 Q1003
EFHA - Halli (fin-Afb), Finland
Etäisyys Sääasemalta: Lo 56km
Päivitetty: 27/10/2020 22:50
Enimmäkseen pilvistä
Enimmäkseen pilvistä
 Tuulen suunta E
Tuuli: E 11 km/h
Lämpötila: 9°C
Tuulen purevuus: 7°C
Kastepiste: 8°C
Ilmankosteus: 94%
Ilmanpaine: 1003 hPa
Pilvisyys: Enimmäkseen pilvistä
Näkyvyys: 10 km
Pilvisyystiedot: Joitain Pilviä 183 m
Enimmäkseen pilvistä 1372 m
2020/10/27 20:50 EFHA 272050Z AUTO 19006KT 160V220 9999 FEW006 BKN045 09/08 Q1003
EFMI - Mikkeli, Finland
Etäisyys Sääasemalta: IKa 105km
Päivitetty: 27/10/2020 22:50
Heikkoa sadetta, Pilvistä
Heikkoa sadetta, Pilvistä
 Tuulen suunta E
Tuuli: E 6 km/h
Lämpötila: 11°C
Kastepiste: 10°C
Ilmankosteus: 94%
Ilmanpaine: 1004 hPa
Yhteenveto: Light Rain
Pilvisyys: Pilvistä
Näkyvyys: 6 km
Pilvisyystiedot: Pilvistä 244 m
2020/10/27 20:50 EFMI 272050Z AUTO 19003KT 6000 -RA OVC008 11/10 Q1004
 
EFTP - Tampere/Pirkkala, Finland
Etäisyys Sääasemalta: Lo 135km
Päivitetty: 27/10/2020 22:50
Enimmäkseen pilvistä
Enimmäkseen pilvistä
 Tuulen suunta ELo
Tuuli: ELo 11 km/h
Lämpötila: 9°C
Tuulen purevuus: 7°C
Kastepiste: 8°C
Ilmankosteus: 94%
Ilmanpaine: 1003 hPa
Pilvisyys: Enimmäkseen pilvistä
Näkyvyys: 10 km
Pilvisyystiedot: Enimmäkseen pilvistä 274 m
2020/10/27 20:50 EFTP 272050Z AUTO 20006KT 170V230 9999 BKN009 09/08 Q1003
EFKU - Kuopio (mil/Civ), Finland
Etäisyys Sääasemalta: Ko 146km
Päivitetty: 27/10/2020 22:50
Heikkoa sadetta, Kuurottaisia sateita, Ukkospilviä
Heikkoa sadetta, Kuurottaisia sateita, Ukkospilviä
 Tuulen suunta E
Tuuli: E 13 km/h
Lämpötila: 10°C
Tuulen purevuus: 8°C
Kastepiste: 10°C
Ilmankosteus: 100%
Ilmanpaine: 1003 hPa
Yhteenveto: Heikkoa sadetta, Kuurottaisia sateita
Pilvisyys: Ukkospilviä
Näkyvyys: 10 km
Pilvisyystiedot: Joitain Pilviä 335 m
Puolipilvistä 884 m
2020/10/27 20:50 EFKU 272050Z AUTO 19007KT 9999 -SHRA FEW011 SCT029 //////CB 10/10 Q1003
EFSI - Seinajoki-Ilmajo, Finland
Etäisyys Sääasemalta: LLu 149km
Päivitetty: 27/10/2020 22:50
Pilvistä
Pilvistä
 Tuulen suunta EKa
Tuuli: EKa 7 km/h
Lämpötila: 8°C
Tuulen purevuus: 7°C
Kastepiste: 7°C
Ilmankosteus: 93%
Ilmanpaine: 1000 hPa
Pilvisyys: Pilvistä
Näkyvyys: 10 km
Pilvisyystiedot: Joitain Pilviä 305 m
Puolipilvistä 427 m
Enimmäkseen pilvistä 975 m
Pilvistä 1311 m
2020/10/27 20:50 EFSI 272050Z AUTO 16004KT 130V210 9999 FEW010 SCT014 BKN032 OVC043 08/07 Q1000